Baird, Texas
Current Conditions -  °F | °C
As of 6:52 PM on Saturday 22 Nov 2014 (Local Time) from KABI Reporting Station
Few Clouds Few Clouds  
Wind Chill: 13°   Ceiling: Unl
Heat Index: 13°   Visibility: 10mi
Dew Point: 13°   Wind: 9mph
Humidity: 97%   Direction: 150°SSE
Pressure: 29.79"   Gusts: NA
Location:  32.39°N, 99.39°W
Report Text: KABI 230052Z 15008KT 10SM FEW120 13/13 A2979 RMK AO2 PK WND 11033/2358 RAE05 SLP074 P0000 T01330128
Loading
Personal Weather Stations






























Interactive Weather Map New forecast layout! Learn more

10-Day Weather Forecast

Advertisements
Track Severe Weather on mobile